Time;durP1;ratioP1;P1;durP2;ratioP2;P2;SDS_P1;SDS_P2;PMS_P1;PMS_P2;Temp;Humidity;BMP_temperature;BMP_pressure;BME280_temperature;BME280_humidity;BME280_pressure;Samples;Min_cycle;Max_cycle;Signal;HPM_P1;HPM_P2
2023/06/08 00:02:04;;;;;;;;;;;17.60;41.40;;;13.74;74.53;95286.84;5012021;28;20272;-50
2023/06/08 00:04:32;;;;;;;;;;;17.60;41.50;;;13.76;74.49;95284.69;5011147;28;19909;-46
2023/06/08 00:07:00;;;;;;;;;;;17.60;41.60;;;13.77;73.06;95276.34;5010659;28;19999;-50
2023/06/08 00:09:26;;;;;;;;;;;17.60;41.70;;;13.75;72.69;95283.06;5011581;28;19920;-48
2023/06/08 00:11:52;;;;;;;;;;;17.60;41.80;;;13.67;73.71;95281.06;5004705;28;19909;-48
2023/06/08 00:14:18;;;;;;;;;;;17.50;41.80;;;13.63;74.23;95280.84;4994854;28;19995;-47
2023/06/08 00:16:47;;;;;;;;;;;17.50;41.90;;;13.71;71.76;95279.41;5011362;28;20470;-46
2023/06/08 00:19:15;;;;;;;;;;;17.50;42.00;;;13.89;71.28;95273.22;5014159;28;19908;-46
2023/06/08 00:21:43;;;;;;;;;;;17.60;42.10;;;13.98;71.81;95276.81;5031311;28;20287;-46
2023/06/08 00:24:10;;;;;;;;;;;17.60;42.20;;;13.98;71.72;95281.38;5028080;28;19916;-47
2023/06/08 00:26:35;;;;;;;;;;;17.60;42.20;;;13.85;72.63;95277.56;5032685;28;19920;-46
2023/06/08 00:29:01;;;;;;;;;;;17.60;42.20;;;13.70;74.68;95272.47;5034151;28;19909;-47
2023/06/08 00:31:27;;;;;;;;;;;17.60;42.20;;;13.68;73.53;95271.94;5024324;28;19913;-46
2023/06/08 00:33:53;;;;;;;;;;;17.60;42.30;;;13.55;75.57;95270.81;5052646;28;19915;-48
2023/06/08 00:36:19;;;;;;;;;;;17.50;42.30;;;13.52;75.90;95271.38;5027804;28;19908;-48
2023/06/08 00:38:45;;;;;;;;;;;17.50;42.40;;;13.51;75.21;95267.91;5035730;28;19913;-46
2023/06/08 00:41:11;;;;;;;;;;;17.40;42.50;;;13.48;74.94;95267.72;5037370;28;19915;-49
2023/06/08 00:43:36;;;;;;;;;;;17.40;42.60;;;13.46;74.58;95267.97;5022595;28;19930;-47
2023/06/08 00:46:02;;;;;;;;;;;17.40;42.70;;;13.44;74.57;95270.16;5037850;28;19908;-46
2023/06/08 00:48:30;;;;;;;;;;;17.40;42.80;;;13.39;74.92;95270.25;5030603;28;19908;-46
2023/06/08 00:50:58;;;;;;;;;;;17.30;42.90;;;13.31;76.37;95263.63;5052806;28;19912;-49
2023/06/08 00:53:25;;;;;;;;;;;17.30;42.90;;;13.26;76.21;95273.63;5034421;28;19920;-48
2023/06/08 00:55:53;;;;;;;;;;;17.20;43.00;;;13.24;76.59;95267.75;5028737;28;19916;-46
2023/06/08 00:58:19;;;;;;;;;;;17.20;43.10;;;13.23;76.20;95264.28;5052460;28;19938;-46
2023/06/08 01:00:46;;;;;;;;;;;17.20;43.20;;;13.15;76.85;95262.22;5039032;28;19917;-46
2023/06/08 01:03:16;;;;;;;;;;;17.10;43.20;;;13.17;75.93;95258.19;5036150;28;19909;-48
2023/06/08 01:05:45;;;;;;;;;;;17.10;43.40;;;13.15;76.60;95262.22;5032098;28;19924;-47
2023/06/08 01:08:37;;;;;;;;;;;17.10;43.50;;;13.16;75.92;95263.81;5007856;28;19909;-46
2023/06/08 01:11:23;;;;;;;;;;;17.10;43.60;;;13.11;76.00;95259.34;5017811;28;19913;-48
2023/06/08 01:14:14;;;;;;;;;;;17.00;43.60;;;13.05;76.94;95252.47;5017151;28;20390;-46
2023/06/08 01:16:49;;;;;;;;;;;17.00;43.70;;;13.04;76.88;95258.91;5017501;28;19913;-46
2023/06/08 01:19:28;;;;;;;;;;;17.00;43.80;;;12.99;77.70;95258.19;5032741;28;20335;-46
2023/06/08 01:22:19;;;;;;;;;;;16.90;43.80;;;12.87;78.86;95256.69;5031733;28;19908;-46
2023/06/08 01:24:49;;;;;;;;;;;16.90;44.00;;;12.86;78.77;95254.34;5005431;28;19916;-46
2023/06/08 01:27:18;;;;;;;;;;;16.90;44.10;;;12.83;78.90;95252.22;5017251;28;19924;-47
2023/06/08 01:29:44;;;;;;;;;;;16.80;44.00;;;12.70;80.00;95259.84;5031487;28;19909;-48
2023/06/08 01:32:11;;;;;;;;;;;16.80;44.20;;;12.70;80.01;95259.84;5017425;28;19909;-47
2023/06/08 01:34:39;;;;;;;;;;;16.80;44.30;;;12.67;79.99;95260.44;5016945;28;19909;-46
2023/06/08 01:37:23;;;;;;;;;;;16.70;45.00;;;12.55;81.38;95252.00;5027557;28;20371;-47
2023/06/08 01:40:15;;;;;;;;;;;16.70;44.50;;;12.58;80.98;95256.78;5028735;28;19909;-48
2023/06/08 01:42:47;;;;;;;;;;;16.60;44.70;;;12.57;80.74;95254.41;4998658;28;20251;-48
2023/06/08 01:45:21;;;;;;;;;;;16.60;44.90;;;12.50;81.58;95255.56;5014122;28;19917;-47
2023/06/08 01:47:58;;;;;;;;;;;16.60;45.00;;;12.47;81.86;95257.97;5024465;28;19916;-48
2023/06/08 01:50:25;;;;;;;;;;;16.50;45.00;;;12.42;82.09;95258.84;5013561;28;20348;-46
2023/06/08 01:52:51;;;;;;;;;;;16.50;45.20;;;12.38;82.13;95257.00;5028652;28;19983;-48
2023/06/08 01:55:20;;;;;;;;;;;16.40;45.20;;;12.30;83.17;95258.44;5019897;28;19916;-48
2023/06/08 01:57:47;;;;;;;;;;;16.40;45.30;;;12.24;83.82;95252.34;5013608;28;20398;-48
2023/06/08 02:00:20;;;;;;;;;;;16.30;45.40;;;12.14;84.58;95251.66;5012542;28;19987;-48
2023/06/08 02:02:46;;;;;;;;;;;16.30;45.50;;;12.10;84.96;95255.97;5013203;28;20237;-50
2023/06/08 02:05:15;;;;;;;;;;;16.20;45.60;;;12.05;85.04;95256.81;5012666;28;19909;-48
2023/06/08 02:07:42;;;;;;;;;;;16.20;45.70;;;11.94;85.87;95257.97;5003588;28;19944;-46
2023/06/08 02:10:11;;;;;;;;;;;16.10;45.80;;;11.89;86.03;95258.81;5012647;28;20360;-49
2023/06/08 02:12:38;;;;;;;;;;;16.10;45.90;;;11.90;86.26;95251.59;5012235;28;19944;-48
2023/06/08 02:15:04;;;;;;;;;;;16.00;46.00;;;11.90;86.40;95259.59;5011896;28;19909;-49
2023/06/08 02:17:33;;;;;;;;;;;16.00;46.20;;;11.88;86.66;95261.78;5009903;28;20103;-48
2023/06/08 02:20:06;;;;;;;;;;;15.90;46.30;;;11.86;87.00;95253.25;5005227;28;19909;-46
2023/06/08 02:22:33;;;;;;;;;;;15.90;46.50;;;11.81;87.30;95254.03;5013167;28;19917;-46
2023/06/08 02:25:00;;;;;;;;;;;15.90;46.60;;;11.78;87.68;95257.25;5009274;28;20008;-47
2023/06/08 02:27:27;;;;;;;;;;;15.80;46.80;;;11.78;87.53;95263.41;5013145;28;19988;-46
2023/06/08 02:29:54;;;;;;;;;;;15.90;46.90;;;11.78;87.45;95259.94;5006840;28;19917;-46
2023/06/08 02:32:20;;;;;;;;;;;15.80;47.00;;;11.79;87.48;95257.00;5012153;28;20279;-46
2023/06/08 02:34:53;;;;;;;;;;;15.90;47.10;;;11.76;87.70;95262.09;5012829;28;19920;-48
2023/06/08 02:37:19;;;;;;;;;;;15.80;47.20;;;11.77;87.77;95264.47;5011014;28;19941;-48
2023/06/08 02:39:45;;;;;;;;;;;15.80;47.20;;;11.76;88.07;95257.56;5012976;28;19917;-46
2023/06/08 02:42:11;;;;;;;;;;;15.80;47.30;;;11.74;88.42;95262.38;5011503;28;19913;-46
2023/06/08 02:44:37;;;;;;;;;;;15.80;47.40;;;11.75;88.43;95258.66;5012507;28;19909;-48
2023/06/08 02:47:04;;;;;;;;;;;15.80;48.10;;;11.75;89.12;95263.16;5012376;28;19978;-46
2023/06/08 02:49:30;;;;;;;;;;;15.80;47.60;;;11.73;88.54;95263.44;5006381;28;20360;-46
2023/06/08 02:51:55;;;;;;;;;;;15.80;47.60;;;11.74;88.62;95267.69;5012756;28;19958;-45
2023/06/08 02:54:22;;;;;;;;;;;15.80;47.70;;;11.73;89.02;95260.00;5027007;28;20016;-47
2023/06/08 02:56:48;;;;;;;;;;;15.80;47.80;;;11.75;89.05;95258.66;5012508;28;19951;-47
2023/06/08 02:59:14;;;;;;;;;;;15.90;47.90;;;11.74;89.29;95267.69;5011677;28;19913;-49
2023/06/08 03:01:51;;;;;;;;;;;15.80;47.90;;;11.72;89.28;95261.88;5011423;28;19909;-47
2023/06/08 03:04:20;;;;;;;;;;;15.90;48.00;;;11.72;89.26;95259.19;5012132;28;20011;-48
2023/06/08 03:06:46;;;;;;;;;;;15.80;48.00;;;11.73;89.45;95258.13;5008642;28;20427;-48
2023/06/08 03:09:13;;;;;;;;;;;15.80;48.10;;;11.74;89.49;95254.34;5007207;28;19909;-48
2023/06/08 03:11:39;;;;;;;;;;;15.90;48.20;;;11.77;89.62;95248.47;5009106;28;19913;-47
2023/06/08 03:14:05;;;;;;;;;;;15.90;48.30;;;11.81;89.96;95252.19;5005594;28;20027;-48
2023/06/08 03:16:31;;;;;;;;;;;15.90;48.40;;;11.85;89.92;95254.31;5012482;28;20012;-47
2023/06/08 03:18:57;;;;;;;;;;;15.90;48.50;;;11.85;89.62;95249.78;5000589;28;19914;-47
2023/06/08 03:21:28;;;;;;;;;;;15.90;48.50;;;11.85;89.96;95252.44;5032231;28;19909;-46
2023/06/08 03:23:57;;;;;;;;;;;15.90;48.50;;;11.88;89.53;95256.44;5033960;28;19966;-49
2023/06/08 03:26:23;;;;;;;;;;;15.90;48.50;;;11.88;89.65;95262.56;5013158;28;19931;-49
2023/06/08 03:28:49;;;;;;;;;;;16.00;48.60;;;11.90;89.39;95263.06;5016838;28;19909;-50
2023/06/08 03:31:15;;;;;;;;;;;16.00;48.60;;;11.88;89.78;95259.91;5022458;28;19913;-53
2023/06/08 03:33:40;;;;;;;;;;;16.00;48.60;;;11.83;91.23;95257.22;5023013;28;20268;-49
2023/06/08 03:36:06;;;;;;;;;;;16.00;48.70;;;11.80;91.24;95263.91;5021926;28;19932;-52
2023/06/08 03:38:32;;;;;;;;;;;16.00;48.70;;;11.77;92.08;95253.00;5018884;28;19913;-53
2023/06/08 03:40:59;;;;;;;;;;;15.90;48.70;;;11.83;91.25;95259.91;5015106;28;19916;-54
2023/06/08 03:43:25;;;;;;;;;;;15.90;48.80;;;11.86;91.04;95263.91;5018558;28;20283;-53
2023/06/08 03:45:50;;;;;;;;;;;15.90;48.90;;;11.86;90.97;95262.03;5031716;28;19909;-51
2023/06/08 03:48:16;;;;;;;;;;;15.90;48.90;;;11.87;91.05;95265.50;5015982;28;19913;-51
2023/06/08 03:50:45;;;;;;;;;;;15.90;49.00;;;11.86;90.93;95261.25;5030221;28;20478;-52
2023/06/08 03:53:11;;;;;;;;;;;16.00;49.10;;;11.86;90.97;95262.03;5046211;28;19932;-48
2023/06/08 03:55:38;;;;;;;;;;;16.00;49.10;;;11.92;90.94;95268.13;5005006;28;19909;-52
2023/06/08 03:58:04;;;;;;;;;;;16.00;49.20;;;11.94;90.55;95269.47;5030907;28;20371;-50
2023/06/08 04:00:30;;;;;;;;;;;16.00;49.20;;;12.00;90.50;95273.66;5021382;28;19915;-45
2023/06/08 04:02:57;;;;;;;;;;;16.10;49.20;;;12.00;90.42;95264.84;5030854;28;19970;-49
2023/06/08 04:05:23;;;;;;;;;;;16.10;49.30;;;12.01;90.81;95269.13;5016931;28;20287;-45
2023/06/08 04:07:51;;;;;;;;;;;16.10;49.30;;;12.01;90.66;95266.47;5000029;28;19944;-45
2023/06/08 04:10:17;;;;;;;;;;;16.20;49.40;;;12.01;90.43;95269.13;5031272;28;20375;-45
2023/06/08 04:12:43;;;;;;;;;;;16.20;49.40;;;12.04;90.26;95271.22;5015266;28;19999;-49
2023/06/08 04:15:13;;;;;;;;;;;16.20;49.40;;;12.13;89.89;95276.78;5031373;28;19909;-50
2023/06/08 04:17:43;;;;;;;;;;;16.20;49.40;;;12.26;89.54;95281.44;5027967;28;20371;-45
2023/06/08 04:20:11;;;;;;;;;;;16.30;49.40;;;12.44;89.16;95278.06;5031657;28;19909;-45
2023/06/08 04:22:37;;;;;;;;;;;16.40;49.40;;;12.59;89.08;95285.09;5030667;28;19939;-44
2023/06/08 04:25:04;;;;;;;;;;;16.40;49.40;;;12.74;88.70;95276.91;5016393;28;19908;-46
2023/06/08 04:27:30;;;;;;;;;;;16.50;49.40;;;12.91;88.11;95279.13;5046502;28;20321;-46
2023/06/08 04:29:57;;;;;;;;;;;16.60;49.50;;;13.07;87.88;95282.41;5023931;28;19917;-52
2023/06/08 04:32:23;;;;;;;;;;;16.70;49.40;;;13.22;87.06;95283.28;5016793;28;19913;-49
2023/06/08 04:34:49;;;;;;;;;;;16.90;50.00;;;13.32;86.16;95285.84;5015911;28;19908;-50
2023/06/08 04:37:15;;;;;;;;;;;17.00;49.40;;;13.50;86.00;95287.72;5011085;28;19922;-48
2023/06/08 04:39:41;;;;;;;;;;;17.10;49.30;;;13.67;85.04;95281.06;5023913;28;19917;-51
2023/06/08 04:42:08;;;;;;;;;;;17.30;49.30;;;13.81;84.65;95285.38;5013025;28;19909;-48
2023/06/08 04:44:34;;;;;;;;;;;17.50;49.20;;;13.97;84.17;95287.81;5024043;28;19954;-49
2023/06/08 04:47:07;;;;;;;;;;;17.60;49.20;;;14.20;83.49;95286.13;5031038;28;20015;-47
2023/06/08 04:49:34;;;;;;;;;;;17.80;49.10;;;14.43;82.39;95293.19;5016379;28;19913;-47
2023/06/08 04:52:01;;;;;;;;;;;18.00;49.60;;;14.66;81.10;95291.44;5020465;28;19909;-46
2023/06/08 04:54:27;;;;;;;;;;;18.20;48.90;;;14.89;79.66;95295.03;5014651;28;20383;-49
2023/06/08 04:56:58;;;;;;;;;;;18.40;48.90;;;15.10;77.57;95289.25;5022423;28;19913;-47
2023/06/08 04:59:26;;;;;;;;;;;18.60;48.70;;;15.44;77.59;95281.53;5022649;28;20455;-46
2023/06/08 05:01:53;;;;;;;;;;;18.90;48.60;;;15.73;76.96;95286.56;5014285;28;19909;-46
2023/06/08 05:04:20;;;;;;;;;;;19.10;48.50;;;15.88;74.24;95293.44;5028309;28;19980;-49
2023/06/08 05:06:46;;;;;;;;;;;19.40;48.30;;;16.08;73.42;95300.25;5005138;28;19916;-45
2023/06/08 05:09:14;;;;;;;;;;;19.70;48.70;;;16.20;72.73;95302.34;5024033;28;19915;-47
2023/06/08 05:11:40;;;;;;;;;;;20.00;47.90;;;16.34;72.18;95302.31;5019350;28;19913;-46
2023/06/08 05:14:10;;;;;;;;;;;20.20;47.60;;;16.53;71.36;95294.03;5034425;28;20399;-46
2023/06/08 05:16:37;;;;;;;;;;;20.50;47.40;;;16.74;70.57;95297.75;5034278;28;19936;-49
2023/06/08 05:19:11;;;;;;;;;;;20.70;47.20;;;16.96;68.89;95298.81;5026359;28;19916;-46
2023/06/08 05:21:39;;;;;;;;;;;21.00;47.00;;;17.14;67.08;95303.13;5033929;28;19908;-47
2023/06/08 05:24:06;;;;;;;;;;;21.20;46.70;;;17.26;65.75;95305.22;5019669;28;19922;-48
2023/06/08 05:26:32;;;;;;;;;;;21.50;46.40;;;17.35;65.20;95311.41;5024997;28;19916;-46
2023/06/08 05:29:01;;;;;;;;;;;21.70;46.20;;;17.46;64.07;95304.63;5034184;28;19908;-49
2023/06/08 05:31:27;;;;;;;;;;;21.90;45.90;;;17.61;64.97;95316.03;5028023;28;20383;-47
2023/06/08 05:33:53;;;;;;;;;;;22.10;45.60;;;17.75;65.05;95308.63;5021071;28;19955;-47
2023/06/08 05:36:19;;;;;;;;;;;22.30;45.40;;;17.94;63.46;95308.34;5031017;28;19948;-46
2023/06/08 05:38:45;;;;;;;;;;;22.60;45.30;;;18.11;61.94;95315.59;5024665;28;19954;-47
2023/06/08 05:41:10;;;;;;;;;;;22.80;45.00;;;18.31;61.84;95312.25;5022065;28;19912;-47
2023/06/08 05:43:36;;;;;;;;;;;23.00;45.40;;;18.49;60.61;95313.81;5022819;28;19915;-53
2023/06/08 05:46:02;;;;;;;;;;;23.30;44.50;;;18.70;60.87;95315.81;5034144;28;19916;-52
2023/06/08 05:48:30;;;;;;;;;;;23.50;44.20;;;18.81;59.80;95313.59;5023424;28;19909;-49
2023/06/08 05:50:56;;;;;;;;;;;23.70;44.00;;;19.00;59.78;95313.19;5033740;28;19912;-49
2023/06/08 05:53:22;;;;;;;;;;;23.90;43.80;;;19.25;58.92;95314.19;5031198;28;20007;-48
2023/06/08 05:55:53;;;;;;;;;;;24.20;43.60;;;19.50;57.11;95313.25;5009495;28;19919;-47
2023/06/08 05:58:21;;;;;;;;;;;24.40;43.30;;;19.83;56.07;95316.03;5033695;28;19920;-48
2023/06/08 06:00:46;;;;;;;;;;;24.70;43.00;;;20.03;55.86;95310.97;5028859;28;20007;-47
2023/06/08 06:03:12;;;;;;;;;;;25.00;42.70;;;20.14;54.50;95319.47;5032924;28;19983;-47
2023/06/08 06:05:41;;;;;;;;;;;25.30;42.40;;;20.21;53.90;95312.41;5031747;28;19913;-47
2023/06/08 06:08:07;;;;;;;;;;;25.60;42.20;;;20.41;52.94;95308.06;5011376;28;19967;-49
2023/06/08 06:10:33;;;;;;;;;;;25.90;41.90;;;20.63;52.52;95314.25;5033428;28;20389;-52
2023/06/08 06:12:58;;;;;;;;;;;26.10;41.50;;;20.82;52.03;95309.09;5009144;28;19921;-47
2023/06/08 06:15:25;;;;;;;;;;;26.30;41.20;;;20.94;51.58;95306.41;5033720;28;19916;-51
2023/06/08 06:17:53;;;;;;;;;;;26.60;40.90;;;21.00;51.25;95307.75;5027943;28;26892;-47
2023/06/08 06:20:31;;;;;;;;;;;26.80;40.60;;;21.19;49.89;95314.53;5033437;28;19945;-47
2023/06/08 06:22:57;;;;;;;;;;;27.00;40.30;;;21.27;49.63;95311.69;5031490;28;19917;-50
2023/06/08 06:25:23;;;;;;;;;;;27.30;40.00;;;21.59;48.96;95316.56;5021927;28;19917;-50
2023/06/08 06:27:48;;;;;;;;;;;27.50;39.70;;;21.94;47.46;95309.50;5033277;28;19924;-48
2023/06/08 06:30:15;;;;;;;;;;;27.80;39.40;;;22.11;46.48;95316.53;5018129;28;19910;-44
2023/06/08 06:32:41;;;;;;;;;;;28.10;39.00;;;22.22;45.79;95310.66;5024168;28;19913;-45
2023/06/08 06:35:07;;;;;;;;;;;28.40;38.50;;;22.46;45.79;95309.75;5024705;28;19909;-45
2023/06/08 06:37:35;;;;;;;;;;;28.70;38.20;;;22.81;45.86;95316.13;5004533;28;19927;-46
2023/06/08 06:40:06;;;;;;;;;;;28.90;37.90;;;22.96;44.56;95311.06;5027478;28;19909;-47
2023/06/08 06:42:33;;;;;;;;;;;29.30;37.80;;;23.00;45.14;95315.47;5026109;28;20302;-45
2023/06/08 06:44:59;;;;;;;;;;;29.50;37.30;;;23.31;45.40;95311.91;5032916;28;19921;-45
2023/06/08 06:47:25;;;;;;;;;;;29.80;37.10;;;23.70;44.33;95311.28;5031259;28;19909;-47
2023/06/08 06:49:50;;;;;;;;;;;30.10;36.90;;;23.80;42.92;95308.00;5025498;28;19912;-47
2023/06/08 06:52:16;;;;;;;;;;;30.20;36.80;;;23.66;43.33;95313.91;5031932;28;19909;-45
2023/06/08 06:54:42;;;;;;;;;;;30.20;36.50;;;23.72;43.84;95317.13;5008454;28;19913;-45
2023/06/08 06:57:08;;;;;;;;;;;30.20;36.30;;;23.41;44.41;95312.53;5030174;28;19913;-45
2023/06/08 06:59:34;;;;;;;;;;;30.10;36.10;;;23.59;44.31;95324.59;5026804;28;20003;-45
2023/06/08 07:02:00;;;;;;;;;;;30.20;35.80;;;23.90;44.14;95317.53;5030551;28;19908;-46
2023/06/08 07:04:26;;;;;;;;;;;30.40;35.60;;;24.34;42.98;95314.53;5047688;28;19920;-46
2023/06/08 07:06:52;;;;;;;;;;;30.70;35.40;;;24.59;42.24;95315.81;5017386;28;19909;-45
2023/06/08 07:09:21;;;;;;;;;;;30.90;35.30;;;24.75;41.23;95323.88;5017412;28;19909;-45
2023/06/08 07:11:48;;;;;;;;;;;31.10;35.20;;;24.69;41.47;95317.16;5024415;28;19920;-48
2023/06/08 07:14:15;;;;;;;;;;;31.30;34.80;;;24.96;40.85;95317.25;5018577;28;19909;-45
2023/06/08 07:16:41;;;;;;;;;;;31.50;34.70;;;25.35;40.48;95312.47;5032057;28;19953;-45
2023/06/08 07:19:07;;;;;;;;;;;31.80;34.60;;;25.50;39.06;95314.25;5030149;28;19909;-45
2023/06/08 07:21:38;;;;;;;;;;;31.90;34.40;;;25.29;39.31;95320.19;5031622;28;20333;-45
2023/06/08 07:24:05;;;;;;;;;;;32.10;33.90;;;25.48;39.12;95318.50;5021353;28;19924;-46
2023/06/08 07:26:31;;;;;;;;;;;32.10;33.40;;;25.85;38.71;95315.94;5005689;28;19909;-45
2023/06/08 07:28:58;;;;;;;;;;;32.20;33.40;;;25.90;38.28;95315.63;5012188;28;19915;-46
2023/06/08 07:31:24;;;;;;;;;;;32.40;33.90;;;25.83;37.79;95312.81;5010752;28;19916;-45
2023/06/08 07:33:51;;;;;;;;;;;32.40;32.90;;;26.11;37.66;95314.34;5011930;28;19909;-48
2023/06/08 07:36:16;;;;;;;;;;;32.60;32.80;;;25.95;36.34;95317.25;5003981;28;19967;-45
2023/06/08 07:38:42;;;;;;;;;;;32.60;32.30;;;26.29;36.42;95318.06;5005974;28;19917;-46
2023/06/08 07:41:08;;;;;;;;;;;32.60;32.20;;;26.37;36.48;95317.00;5011444;28;19909;-46
2023/06/08 07:43:33;;;;;;;;;;;32.80;32.10;;;26.62;36.14;95311.84;5010636;28;19916;-45
2023/06/08 07:45:59;;;;;;;;;;;32.90;32.00;;;26.74;35.18;95319.00;5011975;28;19909;-48
2023/06/08 07:48:25;;;;;;;;;;;33.00;31.80;;;27.00;35.50;95315.31;5010718;28;20333;-50
2023/06/08 07:50:51;;;;;;;;;;;33.20;31.70;;;27.03;34.62;95311.84;5011559;28;19909;-49
2023/06/08 07:53:18;;;;;;;;;;;33.30;31.40;;;27.25;34.26;95320.25;5011967;28;19909;-52
2023/06/08 07:55:43;;;;;;;;;;;33.50;31.30;;;27.61;33.90;95305.69;5015033;28;19909;-47
2023/06/08 07:58:09;;;;;;;;;;;33.70;31.00;;;27.98;33.66;95306.69;5031366;28;20394;-46
2023/06/08 08:00:35;;;;;;;;;;;33.90;30.80;;;28.04;32.60;95311.41;5024543;28;19912;-47
2023/06/08 08:03:03;;;;;;;;;;;34.10;30.60;;;27.99;32.67;95297.34;5030948;28;20274;-48
2023/06/08 08:05:30;;;;;;;;;;;34.30;30.40;;;28.19;32.27;95304.06;5030113;28;19962;-49
2023/06/08 08:07:56;;;;;;;;;;;34.50;30.20;;;28.28;32.25;95301.75;5018391;28;19919;-46
2023/06/08 08:10:22;;;;;;;;;;;34.60;30.10;;;28.10;31.99;95301.66;5032163;28;19915;-50
2023/06/08 08:12:48;;;;;;;;;;;34.80;30.00;;;28.16;32.84;95299.34;5018758;28;19909;-48
2023/06/08 08:15:13;;;;;;;;;;;34.90;29.90;;;27.80;32.73;95301.16;5016783;28;20015;-47
2023/06/08 08:17:40;;;;;;;;;;;35.00;29.70;;;28.01;32.51;95295.75;5026732;28;20310;-45
2023/06/08 08:20:07;;;;;;;;;;;35.20;29.60;;;28.33;31.52;95295.09;5005134;28;20283;-48
2023/06/08 08:22:33;;;;;;;;;;;35.30;29.40;;;28.61;31.87;95286.22;5031037;28;19908;-49
2023/06/08 08:24:59;;;;;;;;;;;35.40;29.30;;;28.85;31.26;95292.91;5010682;28;19923;-47
2023/06/08 08:27:25;;;;;;;;;;;35.60;29.10;;;28.98;30.53;95304.28;5017973;28;19916;-51
2023/06/08 08:29:51;;;;;;;;;;;35.80;29.00;;;29.27;30.02;95294.94;5042392;28;20098;-45
2023/06/08 08:32:17;;;;;;;;;;;36.00;28.90;;;29.31;30.23;95299.66;5022193;28;19916;-46
2023/06/08 08:34:42;;;;;;;;;;;36.20;28.80;;;29.48;29.94;95296.88;5019639;28;19954;-49
2023/06/08 08:37:08;;;;;;;;;;;36.40;28.60;;;29.82;29.58;95295.69;5017580;28;20356;-51
2023/06/08 08:39:34;;;;;;;;;;;36.50;28.40;;;29.67;30.06;95300.41;5029436;28;19923;-46
2023/06/08 08:42:06;;;;;;;;;;;36.70;28.30;;;29.70;30.46;95296.88;5016719;28;20302;-46
2023/06/08 08:44:33;;;;;;;;;;;36.90;28.10;;;29.83;30.30;95297.25;5046388;28;20287;-46
2023/06/08 08:47:02;;;;;;;;;;;36.90;27.90;;;29.96;29.23;95296.44;5035052;28;19924;-49
2023/06/08 08:49:36;;;;;;;;;;;37.10;27.90;;;30.07;30.13;95295.59;5026909;28;19915;-48
2023/06/08 08:52:04;;;;;;;;;;;37.20;27.60;;;30.55;29.04;95295.81;5033279;28;20003;-49
2023/06/08 08:54:33;;;;;;;;;;;37.30;27.60;;;30.91;28.07;95292.88;5014661;28;19909;-47
2023/06/08 08:57:01;;;;;;;;;;;37.40;27.70;;;31.20;27.68;95295.44;5032915;28;19913;-50
2023/06/08 08:59:28;;;;;;;;;;;37.60;27.30;;;31.34;28.67;95296.13;5049192;28;19994;-48
2023/06/08 09:01:55;;;;;;;;;;;37.80;27.20;;;31.49;28.93;95299.50;5030001;28;19909;-46
2023/06/08 09:04:23;;;;;;;;;;;38.00;27.10;;;31.67;28.49;95295.81;5034803;28;19909;-48
2023/06/08 09:06:50;;;;;;;;;;;38.20;27.00;;;31.84;28.23;95291.31;5023399;28;20310;-46
2023/06/08 09:09:16;;;;;;;;;;;38.40;26.90;;;31.71;28.63;95293.81;5034773;28;19913;-47
2023/06/08 09:12:05;;;;;;;;;;;38.60;26.70;;;31.45;27.70;95287.00;5028550;28;20323;-47
2023/06/08 09:14:31;;;;;;;;;;;38.70;26.40;;;31.46;27.88;95296.81;5008530;28;20031;-47
2023/06/08 09:16:59;;;;;;;;;;;38.70;26.30;;;31.13;27.72;95281.75;5023217;28;20383;-49
2023/06/08 09:19:25;;;;;;;;;;;38.60;26.00;;;30.72;28.57;95291.41;5007960;28;20295;-47
2023/06/08 09:21:51;;;;;;;;;;;38.40;25.90;;;31.09;28.54;95292.78;5028897;28;19919;-51
2023/06/08 09:24:22;;;;;;;;;;;38.30;25.90;;;30.91;28.27;95283.88;5043354;23;19928;-51
2023/06/08 09:26:56;;;;;;;;;;;38.30;26.00;;;31.10;27.96;95286.84;5033125;28;19913;-51
2023/06/08 09:29:40;;;;;;;;;;;38.30;26.00;;;31.36;27.82;95287.44;5018763;28;20355;-56
2023/06/08 09:32:09;;;;;;;;;;;38.30;26.00;;;31.04;28.56;95287.69;5030980;28;20384;-48
2023/06/08 09:34:53;;;;;;;;;;;38.50;26.00;;;30.71;31.12;95278.84;5034945;28;19916;-48
2023/06/08 09:37:26;;;;;;;;;;;38.50;25.90;;;30.99;30.79;95280.63;5026941;28;19917;-50
2023/06/08 09:39:53;;;;;;;;;;;38.50;25.80;;;30.71;30.02;95278.84;5029144;28;19909;-50
2023/06/08 09:42:19;;;;;;;;;;;38.40;25.70;;;30.79;29.97;95276.88;5048695;28;19909;-49
2023/06/08 09:44:45;;;;;;;;;;;38.30;25.60;;;31.04;28.60;95276.69;5034461;28;19909;-48
2023/06/08 09:47:25;;;;;;;;;;;38.20;25.60;;;31.09;28.59;95274.28;5034749;28;19912;-48
2023/06/08 09:49:52;;;;;;;;;;;38.20;25.50;;;31.06;27.60;95280.59;5034139;28;20057;-48
2023/06/08 09:52:23;;;;;;;;;;;38.20;25.50;;;31.68;26.70;95270.63;5034909;28;19909;-48
2023/06/08 09:54:51;;;;;;;;;;;38.30;25.60;;;31.55;27.25;95269.59;5031696;28;19908;-49
2023/06/08 09:57:22;;;;;;;;;;;38.40;25.50;;;31.34;27.26;95270.59;5032539;28;19913;-55
2023/06/08 10:00:23;;;;;;;;;;;38.50;25.30;;;31.18;27.64;95260.06;5017860;28;19941;-51
2023/06/08 10:03:14;;;;;;;;;;;38.40;25.10;;;30.98;27.55;95267.31;5034297;28;19915;-52
2023/06/08 10:05:45;;;;;;;;;;;38.30;24.90;;;31.58;27.33;95255.78;5033069;28;19916;-49
2023/06/08 10:08:19;;;;;;;;;;;38.30;24.90;;;31.78;27.06;95260.72;5028563;28;19926;-49
2023/06/08 10:10:47;;;;;;;;;;;38.30;24.90;;;31.76;26.49;95255.59;5049483;28;19915;-51
2023/06/08 10:13:14;;;;;;;;;;;38.30;24.80;;;31.37;26.27;95263.47;5048166;28;19991;-50
2023/06/08 10:15:41;;;;;;;;;;;38.30;24.60;;;31.80;26.58;95256.34;5034167;28;19908;-49
2023/06/08 10:18:08;;;;;;;;;;;38.30;24.60;;;31.45;26.63;95252.00;5042266;28;19913;-49
2023/06/08 10:20:36;;;;;;;;;;;38.40;24.60;;;30.89;27.19;95245.75;5027775;28;19909;-50
2023/06/08 10:23:04;;;;;;;;;;;38.40;24.50;;;29.62;28.26;95243.97;5049493;28;20015;-49
2023/06/08 10:25:31;;;;;;;;;;;38.20;24.30;;;29.74;29.36;95238.06;5025749;28;20417;-54
2023/06/08 10:28:06;;;;;;;;;;;38.10;24.70;;;30.22;28.64;95253.22;5031080;28;20031;-49
2023/06/08 10:30:42;;;;;;;;;;;38.00;24.30;;;30.66;27.87;95246.28;5022814;28;19975;-52
2023/06/08 10:33:19;;;;;;;;;;;37.90;24.30;;;31.21;27.08;95240.00;5027839;28;19916;-52
2023/06/08 10:36:06;;;;;;;;;;;38.00;24.40;;;31.27;26.80;95240.34;5028102;28;19913;-54
2023/06/08 10:38:56;;;;;;;;;;;38.20;24.40;;;31.05;25.99;95245.25;5016047;28;20291;-50
2023/06/08 10:41:57;;;;;;;;;;;38.30;24.30;;;31.09;25.15;95235.78;5039140;28;19935;-52
2023/06/08 10:44:40;;;;;;;;;;;38.30;24.20;;;31.07;25.98;95234.63;4972758;28;19941;-49
2023/06/08 10:47:12;;;;;;;;;;;38.30;23.90;;;31.19;25.64;95223.13;5028005;28;20011;-50
2023/06/08 10:49:43;;;;;;;;;;;38.30;24.40;;;31.45;25.83;95226.44;5032260;28;19909;-54
2023/06/08 10:52:10;;;;;;;;;;;38.40;23.90;;;31.55;26.39;95222.81;5040531;28;19916;-49
2023/06/08 10:55:04;;;;;;;;;;;38.60;23.90;;;31.99;25.28;95212.91;5015546;28;19940;-52
2023/06/08 10:57:43;;;;;;;;;;;38.70;23.90;;;32.44;24.95;95221.78;5031154;28;19913;-53
2023/06/08 11:00:24;;;;;;;;;;;39.00;23.90;;;32.15;24.54;95204.81;5031573;28;20003;-49
2023/06/08 11:02:51;;;;;;;;;;;39.20;23.80;;;32.32;25.20;95205.00;5033079;28;19915;-52
2023/06/08 11:05:17;;;;;;;;;;;39.30;23.70;;;32.82;25.58;95205.06;5032125;28;19909;-53
2023/06/08 11:07:44;;;;;;;;;;;39.50;23.70;;;33.03;25.49;95204.00;5026170;28;20278;-51
2023/06/08 11:10:10;;;;;;;;;;;39.80;23.70;;;32.85;24.64;95195.19;5021539;28;20008;-50
2023/06/08 11:12:36;;;;;;;;;;;40.00;23.50;;;31.88;25.35;95192.97;5025280;28;20093;-49
2023/06/08 11:15:03;;;;;;;;;;;40.00;23.30;;;32.05;25.57;95194.72;5026501;28;19924;-51
2023/06/08 11:17:30;;;;;;;;;;;39.90;23.20;;;31.56;26.26;95194.13;5027536;28;20329;-50
2023/06/08 11:19:56;;;;;;;;;;;39.90;23.20;;;31.78;26.22;95180.88;5029257;28;20011;-49
2023/06/08 11:22:22;;;;;;;;;;;39.80;23.60;;;31.89;26.05;95186.28;5026158;28;20330;-51
2023/06/08 11:24:50;;;;;;;;;;;39.70;23.00;;;31.65;25.57;95182.59;5028227;28;19917;-56